sensor_id;sensor_type;location;lat;lon;timestamp;P1;durP1;ratioP1;P2;durP2;ratioP2
71979;SDS011;59853;48.190;11.860;2022-10-16T00:01:04;1.67;;;1.05;;
71979;SDS011;59853;48.190;11.860;2022-10-16T00:03:31;2.20;;;1.20;;
71979;SDS011;59853;48.190;11.860;2022-10-16T00:05:58;2.63;;;1.17;;
71979;SDS011;59853;48.190;11.860;2022-10-16T00:08:25;2.50;;;1.17;;
71979;SDS011;59853;48.190;11.860;2022-10-16T00:10:50;3.50;;;1.33;;
71979;SDS011;59853;48.190;11.860;2022-10-16T00:13:16;3.72;;;1.63;;
71979;SDS011;59853;48.190;11.860;2022-10-16T00:15:43;2.58;;;1.60;;
71979;SDS011;59853;48.190;11.860;2022-10-16T00:18:09;3.08;;;1.52;;
71979;SDS011;59853;48.190;11.860;2022-10-16T00:20:35;1.63;;;0.98;;
71979;SDS011;59853;48.190;11.860;2022-10-16T00:23:20;3.65;;;1.30;;
71979;SDS011;59853;48.190;11.860;2022-10-16T00:25:56;3.80;;;1.15;;
71979;SDS011;59853;48.190;11.860;2022-10-16T00:28:23;3.75;;;1.08;;
71979;SDS011;59853;48.190;11.860;2022-10-16T00:30:48;2.22;;;1.15;;
71979;SDS011;59853;48.190;11.860;2022-10-16T00:33:14;4.07;;;1.42;;
71979;SDS011;59853;48.190;11.860;2022-10-16T00:35:39;3.88;;;1.88;;
71979;SDS011;59853;48.190;11.860;2022-10-16T00:38:05;3.20;;;1.50;;
71979;SDS011;59853;48.190;11.860;2022-10-16T00:40:30;3.75;;;1.25;;
71979;SDS011;59853;48.190;11.860;2022-10-16T00:42:57;2.42;;;1.10;;
71979;SDS011;59853;48.190;11.860;2022-10-16T00:45:22;3.65;;;1.50;;
71979;SDS011;59853;48.190;11.860;2022-10-16T00:47:48;4.93;;;1.40;;
71979;SDS011;59853;48.190;11.860;2022-10-16T00:50:18;2.42;;;1.30;;
71979;SDS011;59853;48.190;11.860;2022-10-16T00:52:46;2.55;;;1.52;;
71979;SDS011;59853;48.190;11.860;2022-10-16T00:55:12;3.30;;;1.40;;
71979;SDS011;59853;48.190;11.860;2022-10-16T00:57:38;7.25;;;1.63;;
71979;SDS011;59853;48.190;11.860;2022-10-16T01:00:05;3.38;;;1.35;;
71979;SDS011;59853;48.190;11.860;2022-10-16T01:02:32;2.30;;;1.20;;
71979;SDS011;59853;48.190;11.860;2022-10-16T01:04:58;3.05;;;1.23;;
71979;SDS011;59853;48.190;11.860;2022-10-16T01:10:33;2.38;;;1.30;;
71979;SDS011;59853;48.190;11.860;2022-10-16T01:13:03;3.47;;;1.35;;
71979;SDS011;59853;48.190;11.860;2022-10-16T01:15:36;3.70;;;1.40;;
71979;SDS011;59853;48.190;11.860;2022-10-16T01:18:11;2.13;;;1.40;;
71979;SDS011;59853;48.190;11.860;2022-10-16T01:20:50;4.55;;;1.60;;
71979;SDS011;59853;48.190;11.860;2022-10-16T01:26:14;2.75;;;1.55;;
71979;SDS011;59853;48.190;11.860;2022-10-16T01:29:13;3.92;;;1.50;;
71979;SDS011;59853;48.190;11.860;2022-10-16T01:31:42;4.35;;;1.75;;
71979;SDS011;59853;48.190;11.860;2022-10-16T01:35:14;3.83;;;1.70;;
71979;SDS011;59853;48.190;11.860;2022-10-16T01:37:20;2.17;;;1.30;;
71979;SDS011;59853;48.190;11.860;2022-10-16T01:39:51;3.15;;;1.50;;
71979;SDS011;59853;48.190;11.860;2022-10-16T01:42:21;4.97;;;1.48;;
71979;SDS011;59853;48.190;11.860;2022-10-16T01:44:48;3.75;;;1.60;;
71979;SDS011;59853;48.190;11.860;2022-10-16T01:47:15;6.10;;;1.60;;
71979;SDS011;59853;48.190;11.860;2022-10-16T01:49:41;5.22;;;1.52;;
71979;SDS011;59853;48.190;11.860;2022-10-16T01:52:08;3.60;;;1.40;;
71979;SDS011;59853;48.190;11.860;2022-10-16T01:54:37;3.60;;;1.40;;
71979;SDS011;59853;48.190;11.860;2022-10-16T01:57:04;3.60;;;1.65;;
71979;SDS011;59853;48.190;11.860;2022-10-16T01:59:37;3.58;;;1.38;;
71979;SDS011;59853;48.190;11.860;2022-10-16T02:02:07;6.63;;;1.60;;
71979;SDS011;59853;48.190;11.860;2022-10-16T02:04:36;3.40;;;1.70;;
71979;SDS011;59853;48.190;11.860;2022-10-16T02:07:03;3.50;;;1.77;;
71979;SDS011;59853;48.190;11.860;2022-10-16T02:09:30;3.55;;;1.90;;
71979;SDS011;59853;48.190;11.860;2022-10-16T02:11:57;2.83;;;1.70;;
71979;SDS011;59853;48.190;11.860;2022-10-16T02:14:24;7.63;;;1.77;;
71979;SDS011;59853;48.190;11.860;2022-10-16T02:16:50;2.55;;;1.40;;
71979;SDS011;59853;48.190;11.860;2022-10-16T02:19:16;3.55;;;1.35;;
71979;SDS011;59853;48.190;11.860;2022-10-16T02:21:49;3.58;;;1.40;;
71979;SDS011;59853;48.190;11.860;2022-10-16T02:29:44;3.72;;;1.50;;
71979;SDS011;59853;48.190;11.860;2022-10-16T02:32:15;5.20;;;1.52;;
71979;SDS011;59853;48.190;11.860;2022-10-16T02:34:42;4.07;;;1.52;;
71979;SDS011;59853;48.190;11.860;2022-10-16T02:37:09;4.00;;;1.60;;
71979;SDS011;59853;48.190;11.860;2022-10-16T02:39:35;7.00;;;1.60;;
71979;SDS011;59853;48.190;11.860;2022-10-16T02:42:01;4.95;;;2.13;;
71979;SDS011;59853;48.190;11.860;2022-10-16T02:44:27;3.15;;;2.13;;
71979;SDS011;59853;48.190;11.860;2022-10-16T02:46:52;2.88;;;1.70;;
71979;SDS011;59853;48.190;11.860;2022-10-16T02:49:18;3.25;;;1.88;;
71979;SDS011;59853;48.190;11.860;2022-10-16T02:51:43;3.50;;;2.10;;
71979;SDS011;59853;48.190;11.860;2022-10-16T02:54:09;3.22;;;2.10;;
71979;SDS011;59853;48.190;11.860;2022-10-16T02:56:34;6.53;;;2.10;;
71979;SDS011;59853;48.190;11.860;2022-10-16T02:59:00;5.15;;;2.20;;
71979;SDS011;59853;48.190;11.860;2022-10-16T03:01:26;3.90;;;2.00;;
71979;SDS011;59853;48.190;11.860;2022-10-16T03:03:51;5.47;;;2.05;;
71979;SDS011;59853;48.190;11.860;2022-10-16T03:06:17;4.22;;;1.90;;
71979;SDS011;59853;48.190;11.860;2022-10-16T03:08:42;4.05;;;1.85;;
71979;SDS011;59853;48.190;11.860;2022-10-16T03:11:08;2.85;;;1.50;;
71979;SDS011;59853;48.190;11.860;2022-10-16T03:13:34;4.55;;;1.80;;
71979;SDS011;59853;48.190;11.860;2022-10-16T03:15:59;2.92;;;1.73;;
71979;SDS011;59853;48.190;11.860;2022-10-16T03:18:25;6.18;;;2.00;;
71979;SDS011;59853;48.190;11.860;2022-10-16T03:20:50;3.35;;;1.73;;
71979;SDS011;59853;48.190;11.860;2022-10-16T03:23:16;3.72;;;2.00;;
71979;SDS011;59853;48.190;11.860;2022-10-16T03:25:41;3.20;;;1.98;;
71979;SDS011;59853;48.190;11.860;2022-10-16T03:28:09;2.75;;;1.65;;
71979;SDS011;59853;48.190;11.860;2022-10-16T03:30:34;3.58;;;2.10;;
71979;SDS011;59853;48.190;11.860;2022-10-16T03:33:00;4.22;;;2.08;;
71979;SDS011;59853;48.190;11.860;2022-10-16T03:35:25;4.35;;;2.10;;
71979;SDS011;59853;48.190;11.860;2022-10-16T03:37:51;4.28;;;2.30;;
71979;SDS011;59853;48.190;11.860;2022-10-16T03:40:17;4.32;;;1.85;;
71979;SDS011;59853;48.190;11.860;2022-10-16T03:42:43;4.53;;;2.03;;
71979;SDS011;59853;48.190;11.860;2022-10-16T03:45:09;4.90;;;2.10;;
71979;SDS011;59853;48.190;11.860;2022-10-16T03:47:38;4.05;;;1.90;;
71979;SDS011;59853;48.190;11.860;2022-10-16T03:50:04;4.25;;;2.38;;
71979;SDS011;59853;48.190;11.860;2022-10-16T03:52:30;4.03;;;1.70;;
71979;SDS011;59853;48.190;11.860;2022-10-16T03:54:57;4.00;;;2.00;;
71979;SDS011;59853;48.190;11.860;2022-10-16T03:57:22;5.18;;;2.20;;
71979;SDS011;59853;48.190;11.860;2022-10-16T03:59:48;4.13;;;1.80;;
71979;SDS011;59853;48.190;11.860;2022-10-16T04:02:14;3.55;;;1.77;;
71979;SDS011;59853;48.190;11.860;2022-10-16T04:04:39;3.72;;;1.80;;
71979;SDS011;59853;48.190;11.860;2022-10-16T04:07:05;3.58;;;2.15;;
71979;SDS011;59853;48.190;11.860;2022-10-16T04:09:30;3.67;;;2.30;;
71979;SDS011;59853;48.190;11.860;2022-10-16T04:11:56;5.88;;;2.10;;
71979;SDS011;59853;48.190;11.860;2022-10-16T04:14:21;4.28;;;2.30;;
71979;SDS011;59853;48.190;11.860;2022-10-16T04:16:47;4.47;;;1.80;;
71979;SDS011;59853;48.190;11.860;2022-10-16T04:19:12;3.70;;;1.90;;
71979;SDS011;59853;48.190;11.860;2022-10-16T04:21:38;2.95;;;1.73;;
71979;SDS011;59853;48.190;11.860;2022-10-16T04:24:04;3.20;;;1.90;;
71979;SDS011;59853;48.190;11.860;2022-10-16T04:26:29;3.50;;;1.55;;
71979;SDS011;59853;48.190;11.860;2022-10-16T04:28:55;2.90;;;1.83;;
71979;SDS011;59853;48.190;11.860;2022-10-16T04:31:21;3.40;;;1.60;;
71979;SDS011;59853;48.190;11.860;2022-10-16T04:33:47;3.47;;;1.83;;
71979;SDS011;59853;48.190;11.860;2022-10-16T04:36:13;2.80;;;1.65;;
71979;SDS011;59853;48.190;11.860;2022-10-16T04:38:38;3.67;;;1.73;;
71979;SDS011;59853;48.190;11.860;2022-10-16T04:41:05;2.53;;;1.50;;
71979;SDS011;59853;48.190;11.860;2022-10-16T04:43:31;3.80;;;1.80;;
71979;SDS011;59853;48.190;11.860;2022-10-16T04:45:57;3.00;;;1.67;;
71979;SDS011;59853;48.190;11.860;2022-10-16T04:48:23;6.22;;;2.90;;
71979;SDS011;59853;48.190;11.860;2022-10-16T04:50:48;6.28;;;2.08;;
71979;SDS011;59853;48.190;11.860;2022-10-16T04:53:14;3.95;;;1.80;;
71979;SDS011;59853;48.190;11.860;2022-10-16T04:55:40;3.13;;;1.70;;
71979;SDS011;59853;48.190;11.860;2022-10-16T04:58:06;3.72;;;1.60;;
71979;SDS011;59853;48.190;11.860;2022-10-16T05:00:32;2.83;;;1.60;;
71979;SDS011;59853;48.190;11.860;2022-10-16T05:02:57;4.47;;;1.58;;
71979;SDS011;59853;48.190;11.860;2022-10-16T05:05:24;3.28;;;1.50;;
71979;SDS011;59853;48.190;11.860;2022-10-16T05:07:50;4.47;;;1.42;;
71979;SDS011;59853;48.190;11.860;2022-10-16T05:10:16;3.40;;;1.52;;
71979;SDS011;59853;48.190;11.860;2022-10-16T05:12:42;7.95;;;2.67;;
71979;SDS011;59853;48.190;11.860;2022-10-16T05:15:08;2.50;;;1.50;;
71979;SDS011;59853;48.190;11.860;2022-10-16T05:17:34;8.00;;;1.85;;
71979;SDS011;59853;48.190;11.860;2022-10-16T05:19:59;4.90;;;1.95;;
71979;SDS011;59853;48.190;11.860;2022-10-16T05:22:25;4.63;;;1.58;;
71979;SDS011;59853;48.190;11.860;2022-10-16T05:24:50;3.05;;;1.45;;
71979;SDS011;59853;48.190;11.860;2022-10-16T05:27:16;3.65;;;1.70;;
71979;SDS011;59853;48.190;11.860;2022-10-16T05:29:45;4.97;;;1.80;;
71979;SDS011;59853;48.190;11.860;2022-10-16T05:32:12;3.92;;;1.77;;
71979;SDS011;59853;48.190;11.860;2022-10-16T05:34:39;3.22;;;1.63;;
71979;SDS011;59853;48.190;11.860;2022-10-16T05:37:04;3.55;;;1.60;;
71979;SDS011;59853;48.190;11.860;2022-10-16T05:39:30;3.20;;;1.67;;
71979;SDS011;59853;48.190;11.860;2022-10-16T05:41:56;4.00;;;1.70;;
71979;SDS011;59853;48.190;11.860;2022-10-16T05:44:21;3.92;;;1.77;;
71979;SDS011;59853;48.190;11.860;2022-10-16T05:46:47;4.38;;;1.77;;
71979;SDS011;59853;48.190;11.860;2022-10-16T05:49:12;4.38;;;1.55;;
71979;SDS011;59853;48.190;11.860;2022-10-16T05:51:38;8.68;;;1.73;;
71979;SDS011;59853;48.190;11.860;2022-10-16T05:54:04;3.35;;;1.80;;
71979;SDS011;59853;48.190;11.860;2022-10-16T05:56:29;6.57;;;1.80;;
71979;SDS011;59853;48.190;11.860;2022-10-16T05:58:55;5.13;;;1.80;;
71979;SDS011;59853;48.190;11.860;2022-10-16T06:01:20;3.47;;;1.75;;
71979;SDS011;59853;48.190;11.860;2022-10-16T06:03:49;3.70;;;1.77;;
71979;SDS011;59853;48.190;11.860;2022-10-16T06:06:17;4.25;;;2.08;;
71979;SDS011;59853;48.190;11.860;2022-10-16T06:08:45;2.78;;;1.80;;
71979;SDS011;59853;48.190;11.860;2022-10-16T06:11:12;2.65;;;1.70;;
71979;SDS011;59853;48.190;11.860;2022-10-16T06:13:39;6.72;;;1.73;;
71979;SDS011;59853;48.190;11.860;2022-10-16T06:16:07;3.20;;;1.70;;
71979;SDS011;59853;48.190;11.860;2022-10-16T06:18:34;3.20;;;1.80;;
71979;SDS011;59853;48.190;11.860;2022-10-16T06:20:59;5.53;;;1.63;;
71979;SDS011;59853;48.190;11.860;2022-10-16T06:23:25;4.10;;;1.55;;
71979;SDS011;59853;48.190;11.860;2022-10-16T06:25:51;4.55;;;1.80;;
71979;SDS011;59853;48.190;11.860;2022-10-16T06:28:16;3.15;;;1.77;;
71979;SDS011;59853;48.190;11.860;2022-10-16T06:30:42;3.25;;;2.03;;
71979;SDS011;59853;48.190;11.860;2022-10-16T06:33:11;4.53;;;1.90;;
71979;SDS011;59853;48.190;11.860;2022-10-16T06:35:37;5.63;;;1.67;;
71979;SDS011;59853;48.190;11.860;2022-10-16T06:38:02;4.38;;;2.00;;
71979;SDS011;59853;48.190;11.860;2022-10-16T06:40:28;4.72;;;2.00;;
71979;SDS011;59853;48.190;11.860;2022-10-16T06:42:56;3.08;;;1.90;;
71979;SDS011;59853;48.190;11.860;2022-10-16T06:45:22;5.32;;;2.10;;
71979;SDS011;59853;48.190;11.860;2022-10-16T06:47:47;4.05;;;2.40;;
71979;SDS011;59853;48.190;11.860;2022-10-16T06:50:13;4.60;;;2.30;;
71979;SDS011;59853;48.190;11.860;2022-10-16T06:52:39;5.15;;;2.33;;
71979;SDS011;59853;48.190;11.860;2022-10-16T06:55:04;7.85;;;2.25;;
71979;SDS011;59853;48.190;11.860;2022-10-16T06:57:30;3.05;;;1.70;;
71979;SDS011;59853;48.190;11.860;2022-10-16T06:59:56;3.67;;;1.77;;
71979;SDS011;59853;48.190;11.860;2022-10-16T07:02:22;4.53;;;1.95;;
71979;SDS011;59853;48.190;11.860;2022-10-16T07:04:47;4.32;;;1.90;;
71979;SDS011;59853;48.190;11.860;2022-10-16T07:07:13;4.00;;;1.73;;
71979;SDS011;59853;48.190;11.860;2022-10-16T07:09:39;4.50;;;1.92;;
71979;SDS011;59853;48.190;11.860;2022-10-16T07:12:05;3.97;;;1.95;;
71979;SDS011;59853;48.190;11.860;2022-10-16T07:14:31;5.65;;;2.22;;
71979;SDS011;59853;48.190;11.860;2022-10-16T07:16:56;4.78;;;2.08;;
71979;SDS011;59853;48.190;11.860;2022-10-16T07:19:22;4.25;;;2.05;;
71979;SDS011;59853;48.190;11.860;2022-10-16T07:21:48;3.05;;;1.92;;
71979;SDS011;59853;48.190;11.860;2022-10-16T07:24:14;2.95;;;1.70;;
71979;SDS011;59853;48.190;11.860;2022-10-16T07:26:41;5.97;;;2.00;;
71979;SDS011;59853;48.190;11.860;2022-10-16T07:29:16;7.22;;;2.35;;
71979;SDS011;59853;48.190;11.860;2022-10-16T07:31:45;3.72;;;1.73;;
71979;SDS011;59853;48.190;11.860;2022-10-16T07:34:12;5.50;;;2.50;;
71979;SDS011;59853;48.190;11.860;2022-10-16T07:36:38;3.92;;;1.70;;
71979;SDS011;59853;48.190;11.860;2022-10-16T07:39:04;5.75;;;1.60;;
71979;SDS011;59853;48.190;11.860;2022-10-16T07:41:30;3.53;;;1.95;;
71979;SDS011;59853;48.190;11.860;2022-10-16T07:43:58;2.85;;;1.70;;
71979;SDS011;59853;48.190;11.860;2022-10-16T07:46:25;4.25;;;1.70;;
71979;SDS011;59853;48.190;11.860;2022-10-16T07:48:51;2.95;;;1.85;;
71979;SDS011;59853;48.190;11.860;2022-10-16T07:51:18;4.15;;;1.50;;
71979;SDS011;59853;48.190;11.860;2022-10-16T07:53:45;3.55;;;1.55;;
71979;SDS011;59853;48.190;11.860;2022-10-16T07:56:12;4.07;;;1.88;;
71979;SDS011;59853;48.190;11.860;2022-10-16T07:58:38;3.92;;;1.35;;
71979;SDS011;59853;48.190;11.860;2022-10-16T08:01:05;3.15;;;1.40;;
71979;SDS011;59853;48.190;11.860;2022-10-16T08:03:31;1.98;;;1.25;;
71979;SDS011;59853;48.190;11.860;2022-10-16T08:05:57;2.58;;;1.40;;
71979;SDS011;59853;48.190;11.860;2022-10-16T08:08:23;2.63;;;1.63;;
71979;SDS011;59853;48.190;11.860;2022-10-16T08:10:49;2.85;;;1.40;;
71979;SDS011;59853;48.190;11.860;2022-10-16T08:13:15;2.50;;;1.20;;
71979;SDS011;59853;48.190;11.860;2022-10-16T08:15:41;3.17;;;1.20;;
71979;SDS011;59853;48.190;11.860;2022-10-16T08:18:08;2.08;;;1.17;;
71979;SDS011;59853;48.190;11.860;2022-10-16T08:20:34;2.20;;;1.25;;
71979;SDS011;59853;48.190;11.860;2022-10-16T08:23:00;3.85;;;1.42;;
71979;SDS011;59853;48.190;11.860;2022-10-16T08:25:26;3.13;;;1.27;;
71979;SDS011;59853;48.190;11.860;2022-10-16T08:27:52;2.30;;;1.17;;
71979;SDS011;59853;48.190;11.860;2022-10-16T08:30:18;2.20;;;1.30;;
71979;SDS011;59853;48.190;11.860;2022-10-16T08:32:44;2.38;;;1.50;;
71979;SDS011;59853;48.190;11.860;2022-10-16T08:35:10;1.83;;;1.20;;
71979;SDS011;59853;48.190;11.860;2022-10-16T08:37:37;5.47;;;1.60;;
71979;SDS011;59853;48.190;11.860;2022-10-16T08:40:04;3.65;;;1.90;;
71979;SDS011;59853;48.190;11.860;2022-10-16T08:50:40;7.40;;;5.53;;
71979;SDS011;59853;48.190;11.860;2022-10-16T08:53:06;3.25;;;2.10;;
71979;SDS011;59853;48.190;11.860;2022-10-16T08:58:00;3.63;;;2.10;;
71979;SDS011;59853;48.190;11.860;2022-10-16T09:00:26;3.92;;;2.22;;
71979;SDS011;59853;48.190;11.860;2022-10-16T09:02:53;3.47;;;2.00;;
71979;SDS011;59853;48.190;11.860;2022-10-16T09:08:28;4.53;;;1.95;;
71979;SDS011;59853;48.190;11.860;2022-10-16T09:11:12;5.90;;;1.73;;
71979;SDS011;59853;48.190;11.860;2022-10-16T09:16:44;3.00;;;1.95;;
71979;SDS011;59853;48.190;11.860;2022-10-16T09:19:21;5.90;;;1.77;;
71979;SDS011;59853;48.190;11.860;2022-10-16T09:21:49;4.53;;;1.80;;
71979;SDS011;59853;48.190;11.860;2022-10-16T09:24:17;3.13;;;1.95;;
71979;SDS011;59853;48.190;11.860;2022-10-16T09:26:44;3.88;;;1.60;;
71979;SDS011;59853;48.190;11.860;2022-10-16T09:29:14;2.30;;;1.58;;
71979;SDS011;59853;48.190;11.860;2022-10-16T09:31:40;3.88;;;1.25;;
71979;SDS011;59853;48.190;11.860;2022-10-16T09:34:08;2.72;;;1.08;;
71979;SDS011;59853;48.190;11.860;2022-10-16T09:36:57;2.33;;;1.30;;
71979;SDS011;59853;48.190;11.860;2022-10-16T09:39:24;2.03;;;1.20;;
71979;SDS011;59853;48.190;11.860;2022-10-16T09:41:50;2.05;;;0.98;;
71979;SDS011;59853;48.190;11.860;2022-10-16T09:44:29;1.70;;;1.10;;
71979;SDS011;59853;48.190;11.860;2022-10-16T09:47:10;2.25;;;1.10;;
71979;SDS011;59853;48.190;11.860;2022-10-16T09:49:39;1.85;;;0.95;;
71979;SDS011;59853;48.190;11.860;2022-10-16T09:52:05;4.32;;;1.10;;
71979;SDS011;59853;48.190;11.860;2022-10-16T09:54:37;3.00;;;1.00;;
71979;SDS011;59853;48.190;11.860;2022-10-16T09:57:06;4.03;;;1.10;;
71979;SDS011;59853;48.190;11.860;2022-10-16T09:59:33;1.77;;;1.05;;
71979;SDS011;59853;48.190;11.860;2022-10-16T10:02:01;2.88;;;0.85;;
71979;SDS011;59853;48.190;11.860;2022-10-16T10:04:37;3.97;;;2.15;;
71979;SDS011;59853;48.190;11.860;2022-10-16T10:07:04;5.22;;;2.05;;
71979;SDS011;59853;48.190;11.860;2022-10-16T10:09:34;2.63;;;1.10;;
71979;SDS011;59853;48.190;11.860;2022-10-16T10:12:03;2.33;;;0.93;;
71979;SDS011;59853;48.190;11.860;2022-10-16T10:17:11;2.67;;;1.10;;
71979;SDS011;59853;48.190;11.860;2022-10-16T10:19:40;2.15;;;0.90;;
71979;SDS011;59853;48.190;11.860;2022-10-16T10:24:56;2.90;;;1.30;;
71979;SDS011;59853;48.190;11.860;2022-10-16T10:27:24;3.50;;;1.10;;
71979;SDS011;59853;48.190;11.860;2022-10-16T10:30:41;3.10;;;1.15;;
71979;SDS011;59853;48.190;11.860;2022-10-16T10:38:37;3.60;;;1.70;;
71979;SDS011;59853;48.190;11.860;2022-10-16T10:44:06;3.78;;;1.88;;
71979;SDS011;59853;48.190;11.860;2022-10-16T10:46:53;4.20;;;1.90;;
71979;SDS011;59853;48.190;11.860;2022-10-16T10:52:05;3.97;;;2.00;;
71979;SDS011;59853;48.190;11.860;2022-10-16T10:54:45;6.28;;;2.08;;
71979;SDS011;59853;48.190;11.860;2022-10-16T11:02:48;4.55;;;2.17;;
71979;SDS011;59853;48.190;11.860;2022-10-16T11:05:27;3.53;;;1.80;;
71979;SDS011;59853;48.190;11.860;2022-10-16T11:08:02;3.60;;;1.63;;
71979;SDS011;59853;48.190;11.860;2022-10-16T11:16:00;2.90;;;1.50;;
71979;SDS011;59853;48.190;11.860;2022-10-16T11:18:41;3.05;;;1.30;;
71979;SDS011;59853;48.190;11.860;2022-10-16T11:21:15;5.07;;;1.55;;
71979;SDS011;59853;48.190;11.860;2022-10-16T11:24:00;2.58;;;1.60;;
71979;SDS011;59853;48.190;11.860;2022-10-16T11:26:31;2.38;;;1.50;;
71979;SDS011;59853;48.190;11.860;2022-10-16T11:28:59;2.97;;;1.30;;
71979;SDS011;59853;48.190;11.860;2022-10-16T11:36:49;3.25;;;1.40;;
71979;SDS011;59853;48.190;11.860;2022-10-16T11:39:21;2.30;;;1.17;;
71979;SDS011;59853;48.190;11.860;2022-10-16T11:47:47;1.95;;;0.90;;
71979;SDS011;59853;48.190;11.860;2022-10-16T11:50:26;1.23;;;0.65;;
71979;SDS011;59853;48.190;11.860;2022-10-16T11:55:58;1.75;;;0.60;;
71979;SDS011;59853;48.190;11.860;2022-10-16T11:58:37;0.93;;;0.47;;
71979;SDS011;59853;48.190;11.860;2022-10-16T12:06:33;2.80;;;0.57;;
71979;SDS011;59853;48.190;11.860;2022-10-16T12:09:02;3.08;;;0.73;;
71979;SDS011;59853;48.190;11.860;2022-10-16T12:14:07;1.30;;;0.52;;
71979;SDS011;59853;48.190;11.860;2022-10-16T12:16:37;1.35;;;0.50;;
71979;SDS011;59853;48.190;11.860;2022-10-16T12:19:23;2.72;;;0.73;;
71979;SDS011;59853;48.190;11.860;2022-10-16T12:21:50;2.25;;;0.60;;
71979;SDS011;59853;48.190;11.860;2022-10-16T12:24:35;0.82;;;0.52;;
71979;SDS011;59853;48.190;11.860;2022-10-16T12:27:04;0.70;;;0.50;;
71979;SDS011;59853;48.190;11.860;2022-10-16T12:29:38;2.35;;;0.70;;
71979;SDS011;59853;48.190;11.860;2022-10-16T12:32:05;1.38;;;0.77;;
71979;SDS011;59853;48.190;11.860;2022-10-16T12:34:57;1.38;;;0.70;;
71979;SDS011;59853;48.190;11.860;2022-10-16T12:37:29;0.73;;;0.60;;
71979;SDS011;59853;48.190;11.860;2022-10-16T12:39:57;1.52;;;0.60;;
71979;SDS011;59853;48.190;11.860;2022-10-16T12:42:31;1.08;;;0.52;;
71979;SDS011;59853;48.190;11.860;2022-10-16T12:44:59;0.70;;;0.40;;
71979;SDS011;59853;48.190;11.860;2022-10-16T12:49:57;3.45;;;0.70;;
71979;SDS011;59853;48.190;11.860;2022-10-16T12:55:02;0.90;;;0.60;;
71979;SDS011;59853;48.190;11.860;2022-10-16T12:57:55;1.00;;;0.50;;
71979;SDS011;59853;48.190;11.860;2022-10-16T13:03:20;1.08;;;0.60;;
71979;SDS011;59853;48.190;11.860;2022-10-16T13:17:07;1.98;;;0.95;;
71979;SDS011;59853;48.190;11.860;2022-10-16T13:22:35;1.00;;;0.60;;
71979;SDS011;59853;48.190;11.860;2022-10-16T13:30:21;1.15;;;0.65;;
71979;SDS011;59853;48.190;11.860;2022-10-16T13:32:55;1.10;;;0.70;;
71979;SDS011;59853;48.190;11.860;2022-10-16T13:35:32;1.38;;;0.70;;
71979;SDS011;59853;48.190;11.860;2022-10-16T13:40:47;2.35;;;0.70;;
71979;SDS011;59853;48.190;11.860;2022-10-16T13:43:19;2.33;;;0.63;;
71979;SDS011;59853;48.190;11.860;2022-10-16T13:45:57;0.90;;;0.60;;
71979;SDS011;59853;48.190;11.860;2022-10-16T13:48:24;2.47;;;0.70;;
71979;SDS011;59853;48.190;11.860;2022-10-16T13:53:35;1.30;;;0.70;;
71979;SDS011;59853;48.190;11.860;2022-10-16T13:56:02;1.42;;;0.60;;
71979;SDS011;59853;48.190;11.860;2022-10-16T13:58:28;2.20;;;0.90;;
71979;SDS011;59853;48.190;11.860;2022-10-16T14:00:55;1.13;;;0.60;;
71979;SDS011;59853;48.190;11.860;2022-10-16T14:03:26;3.78;;;0.70;;
71979;SDS011;59853;48.190;11.860;2022-10-16T14:05:53;1.70;;;0.80;;
71979;SDS011;59853;48.190;11.860;2022-10-16T14:08:21;1.33;;;0.50;;
71979;SDS011;59853;48.190;11.860;2022-10-16T14:10:49;1.30;;;0.60;;
71979;SDS011;59853;48.190;11.860;2022-10-16T14:13:19;1.40;;;0.73;;
71979;SDS011;59853;48.190;11.860;2022-10-16T14:15:51;2.05;;;0.50;;
71979;SDS011;59853;48.190;11.860;2022-10-16T14:18:23;1.00;;;0.43;;
71979;SDS011;59853;48.190;11.860;2022-10-16T14:20:50;1.50;;;0.60;;
71979;SDS011;59853;48.190;11.860;2022-10-16T14:28:36;0.82;;;0.52;;
71979;SDS011;59853;48.190;11.860;2022-10-16T14:31:03;1.08;;;0.60;;
71979;SDS011;59853;48.190;11.860;2022-10-16T14:33:45;1.05;;;0.60;;
71979;SDS011;59853;48.190;11.860;2022-10-16T14:36:14;1.02;;;0.50;;
71979;SDS011;59853;48.190;11.860;2022-10-16T14:38:57;1.13;;;0.60;;
71979;SDS011;59853;48.190;11.860;2022-10-16T14:41:25;1.38;;;0.60;;
71979;SDS011;59853;48.190;11.860;2022-10-16T14:43:52;0.95;;;0.50;;
71979;SDS011;59853;48.190;11.860;2022-10-16T14:46:20;2.63;;;0.60;;
71979;SDS011;59853;48.190;11.860;2022-10-16T14:48:59;0.90;;;0.60;;
71979;SDS011;59853;48.190;11.860;2022-10-16T14:51:34;1.75;;;0.70;;
71979;SDS011;59853;48.190;11.860;2022-10-16T14:54:00;1.95;;;0.85;;
71979;SDS011;59853;48.190;11.860;2022-10-16T14:56:29;1.80;;;0.60;;
71979;SDS011;59853;48.190;11.860;2022-10-16T14:58:55;1.10;;;0.60;;
71979;SDS011;59853;48.190;11.860;2022-10-16T15:01:21;1.80;;;0.75;;
71979;SDS011;59853;48.190;11.860;2022-10-16T15:03:47;2.35;;;0.80;;
71979;SDS011;59853;48.190;11.860;2022-10-16T15:06:13;1.52;;;0.80;;
71979;SDS011;59853;48.190;11.860;2022-10-16T15:08:40;2.70;;;0.77;;
71979;SDS011;59853;48.190;11.860;2022-10-16T15:11:15;1.38;;;0.70;;
71979;SDS011;59853;48.190;11.860;2022-10-16T15:13:42;4.22;;;1.00;;
71979;SDS011;59853;48.190;11.860;2022-10-16T15:16:11;2.38;;;1.00;;
71979;SDS011;59853;48.190;11.860;2022-10-16T15:18:38;2.10;;;1.10;;
71979;SDS011;59853;48.190;11.860;2022-10-16T15:21:04;2.78;;;1.60;;
71979;SDS011;59853;48.190;11.860;2022-10-16T15:23:29;4.00;;;1.10;;
71979;SDS011;59853;48.190;11.860;2022-10-16T15:25:55;1.85;;;1.00;;
71979;SDS011;59853;48.190;11.860;2022-10-16T15:28:21;1.67;;;0.90;;
71979;SDS011;59853;48.190;11.860;2022-10-16T15:30:49;2.40;;;1.30;;
71979;SDS011;59853;48.190;11.860;2022-10-16T15:33:16;3.78;;;1.55;;
71979;SDS011;59853;48.190;11.860;2022-10-16T15:35:46;3.17;;;1.25;;
71979;SDS011;59853;48.190;11.860;2022-10-16T15:38:13;2.72;;;1.10;;
71979;SDS011;59853;48.190;11.860;2022-10-16T15:40:40;2.20;;;0.90;;
71979;SDS011;59853;48.190;11.860;2022-10-16T15:45:36;3.55;;;1.20;;
71979;SDS011;59853;48.190;11.860;2022-10-16T15:48:02;2.22;;;1.33;;
71979;SDS011;59853;48.190;11.860;2022-10-16T15:50:30;6.38;;;2.35;;
71979;SDS011;59853;48.190;11.860;2022-10-16T15:52:56;2.63;;;1.40;;
71979;SDS011;59853;48.190;11.860;2022-10-16T15:55:21;1.98;;;0.90;;
71979;SDS011;59853;48.190;11.860;2022-10-16T15:57:47;2.20;;;0.90;;
71979;SDS011;59853;48.190;11.860;2022-10-16T16:00:14;2.10;;;0.90;;
71979;SDS011;59853;48.190;11.860;2022-10-16T16:02:43;2.35;;;1.00;;
71979;SDS011;59853;48.190;11.860;2022-10-16T16:05:09;3.47;;;1.40;;
71979;SDS011;59853;48.190;11.860;2022-10-16T16:08:00;8.98;;;4.22;;
71979;SDS011;59853;48.190;11.860;2022-10-16T16:10:26;4.68;;;1.70;;
71979;SDS011;59853;48.190;11.860;2022-10-16T16:12:52;3.17;;;1.30;;
71979;SDS011;59853;48.190;11.860;2022-10-16T16:15:21;3.25;;;1.80;;
71979;SDS011;59853;48.190;11.860;2022-10-16T16:17:49;4.60;;;3.05;;
71979;SDS011;59853;48.190;11.860;2022-10-16T16:20:15;5.13;;;2.38;;
71979;SDS011;59853;48.190;11.860;2022-10-16T16:22:41;6.97;;;3.20;;
71979;SDS011;59853;48.190;11.860;2022-10-16T16:25:10;2.50;;;1.33;;
71979;SDS011;59853;48.190;11.860;2022-10-16T16:27:36;3.15;;;1.80;;
71979;SDS011;59853;48.190;11.860;2022-10-16T16:30:04;3.55;;;1.48;;
71979;SDS011;59853;48.190;11.860;2022-10-16T16:35:03;3.13;;;1.90;;
71979;SDS011;59853;48.190;11.860;2022-10-16T16:37:30;3.72;;;1.90;;
71979;SDS011;59853;48.190;11.860;2022-10-16T16:39:55;3.80;;;1.52;;
71979;SDS011;59853;48.190;11.860;2022-10-16T16:42:26;4.05;;;1.80;;